createdAt,value
2022-11-21T00:01:16.466Z,3.90
2022-11-21T00:03:43.300Z,3.90
2022-11-21T00:06:10.137Z,3.90
2022-11-21T00:08:37.001Z,3.90
2022-11-21T00:11:03.830Z,4.00
2022-11-21T00:13:30.702Z,4.10
2022-11-21T00:16:06.648Z,4.00
2022-11-21T00:18:34.805Z,3.90
2022-11-21T00:21:11.285Z,3.90
2022-11-21T00:23:38.313Z,3.90
2022-11-21T00:26:10.106Z,4.00
2022-11-21T00:28:37.467Z,4.00
2022-11-21T00:31:05.470Z,4.00
2022-11-21T00:33:34.572Z,4.10
2022-11-21T00:36:09.332Z,3.90
2022-11-21T00:38:36.958Z,4.00
2022-11-21T00:41:04.237Z,4.00
2022-11-21T00:43:31.039Z,4.00
2022-11-21T00:46:01.385Z,3.90
2022-11-21T00:48:29.476Z,3.90
2022-11-21T00:50:56.636Z,3.90
2022-11-21T00:53:23.458Z,3.90
2022-11-21T00:55:50.332Z,4.00
2022-11-21T00:58:17.254Z,3.90
2022-11-21T01:00:44.170Z,3.90
2022-11-21T01:03:11.087Z,4.00
2022-11-21T01:05:37.980Z,4.00
2022-11-21T01:08:05.428Z,4.00
2022-11-21T01:10:32.270Z,4.10
2022-11-21T01:12:59.247Z,3.90
2022-11-21T01:15:26.098Z,4.00
2022-11-21T01:17:52.969Z,4.00
2022-11-21T01:20:19.828Z,4.10
2022-11-21T01:22:46.722Z,4.00
2022-11-21T01:25:13.592Z,4.00
2022-11-21T01:27:40.524Z,4.00
2022-11-21T01:30:07.863Z,4.00
2022-11-21T01:32:34.710Z,4.00
2022-11-21T01:35:01.603Z,3.90
2022-11-21T01:37:28.444Z,4.00
2022-11-21T01:39:55.320Z,4.00
2022-11-21T01:42:22.155Z,4.00
2022-11-21T01:44:51.570Z,4.10
2022-11-21T01:47:18.583Z,3.80
2022-11-21T01:52:31.715Z,3.90
2022-11-21T01:55:07.067Z,4.00
2022-11-21T01:57:40.047Z,3.80
2022-11-21T02:00:16.051Z,3.90
2022-11-21T02:02:51.233Z,3.90
2022-11-21T02:05:23.350Z,3.90
2022-11-21T02:07:52.344Z,3.90
2022-11-21T02:10:19.216Z,4.00
2022-11-21T02:12:53.920Z,4.00
2022-11-21T02:15:27.161Z,4.00
2022-11-21T02:17:53.965Z,3.90
2022-11-21T02:20:26.005Z,3.80
2022-11-21T02:23:38.795Z,3.80
2022-11-21T02:26:05.831Z,3.80
2022-11-21T02:28:32.721Z,3.90
2022-11-21T02:30:59.530Z,3.80
2022-11-21T02:33:26.400Z,3.90
2022-11-21T02:36:01.468Z,3.90
2022-11-21T02:38:34.595Z,3.70
2022-11-21T02:41:03.995Z,3.80
2022-11-21T02:43:42.616Z,3.80
2022-11-21T02:46:09.470Z,3.90
2022-11-21T02:48:37.571Z,4.00
2022-11-21T02:51:04.695Z,3.90
2022-11-21T02:53:31.723Z,3.80
2022-11-21T02:55:58.558Z,3.70
2022-11-21T02:58:26.406Z,3.80
2022-11-21T03:00:55.143Z,3.70
2022-11-21T03:03:22.792Z,3.80
2022-11-21T03:05:49.830Z,3.80
2022-11-21T03:08:17.099Z,3.90
2022-11-21T03:10:43.946Z,3.70
2022-11-21T03:13:10.832Z,3.70
2022-11-21T03:15:37.650Z,3.80
2022-11-21T03:18:04.645Z,3.70
2022-11-21T03:20:33.326Z,3.70
2022-11-21T03:23:00.562Z,3.70
2022-11-21T03:25:28.319Z,3.80
2022-11-21T03:27:55.604Z,3.70
2022-11-21T03:30:23.979Z,3.60
2022-11-21T03:32:51.201Z,3.50
2022-11-21T03:35:18.055Z,3.70
2022-11-21T03:37:44.896Z,3.60
2022-11-21T03:40:12.270Z,3.80
2022-11-21T03:42:39.095Z,3.80
2022-11-21T03:45:06.519Z,3.70
2022-11-21T03:47:34.300Z,3.70
2022-11-21T03:50:01.174Z,3.80
2022-11-21T03:52:28.295Z,3.70
2022-11-21T03:54:55.108Z,3.70
2022-11-21T03:57:21.962Z,3.90
2022-11-21T03:59:48.851Z,3.70
2022-11-21T04:02:15.776Z,3.90
2022-11-21T04:04:42.675Z,3.70
2022-11-21T04:07:09.653Z,3.70
2022-11-21T04:09:36.530Z,3.70
2022-11-21T04:12:07.423Z,3.80
2022-11-21T04:14:34.876Z,3.70
2022-11-21T04:17:02.056Z,3.70
2022-11-21T04:19:28.933Z,3.70
2022-11-21T04:21:55.815Z,3.70
2022-11-21T04:24:22.595Z,3.80
2022-11-21T04:26:49.490Z,3.70
2022-11-21T04:29:16.329Z,3.70
2022-11-21T04:31:43.185Z,3.70
2022-11-21T04:34:10.060Z,3.90
2022-11-21T04:36:37.018Z,3.60
2022-11-21T04:39:03.986Z,3.60
2022-11-21T04:41:30.857Z,3.70
2022-11-21T04:43:57.642Z,3.70
2022-11-21T04:46:24.538Z,3.90
2022-11-21T04:48:51.358Z,3.70
2022-11-21T04:51:18.272Z,3.70
2022-11-21T04:53:45.106Z,3.80
2022-11-21T04:56:16.279Z,3.80
2022-11-21T04:58:44.656Z,3.70
2022-11-21T05:01:11.936Z,3.80
2022-11-21T05:03:38.858Z,3.70
2022-11-21T05:06:05.691Z,3.70
2022-11-21T05:08:32.788Z,3.70
2022-11-21T05:11:18.055Z,3.70
2022-11-21T05:13:44.999Z,3.70
2022-11-21T05:16:11.935Z,3.90
2022-11-21T05:18:38.784Z,3.70
2022-11-21T05:21:05.663Z,3.70
2022-11-21T05:23:32.531Z,3.90
2022-11-21T05:26:03.582Z,3.90
2022-11-21T05:28:30.414Z,3.90
2022-11-21T05:30:57.269Z,3.90
2022-11-21T05:33:24.139Z,3.70
2022-11-21T05:35:50.961Z,3.70
2022-11-21T05:38:17.820Z,3.90
2022-11-21T05:40:44.794Z,3.80
2022-11-21T05:43:30.532Z,3.90
2022-11-21T05:45:57.357Z,3.80
2022-11-21T05:48:24.210Z,3.80
2022-11-21T05:50:51.089Z,3.80
2022-11-21T05:53:18.870Z,3.80
2022-11-21T05:55:45.996Z,3.80
2022-11-21T05:58:13.306Z,3.90
2022-11-21T06:00:40.298Z,3.80
2022-11-21T06:03:28.161Z,3.70
2022-11-21T06:06:09.218Z,3.80
2022-11-21T06:08:39.764Z,3.80
2022-11-21T06:11:08.391Z,3.70
2022-11-21T06:13:35.462Z,3.80
2022-11-21T06:16:18.401Z,3.90
2022-11-21T06:18:47.370Z,3.80
2022-11-21T06:21:17.926Z,3.90
2022-11-21T06:23:45.262Z,3.80
2022-11-21T06:26:18.519Z,3.90
2022-11-21T06:28:46.401Z,3.90
2022-11-21T06:31:16.285Z,3.90
2022-11-21T06:33:43.897Z,3.90
2022-11-21T06:36:18.135Z,3.90
2022-11-21T06:38:45.634Z,4.00
2022-11-21T06:41:23.014Z,4.00
2022-11-21T06:43:49.975Z,4.00
2022-11-21T06:46:17.361Z,3.90
2022-11-21T06:48:44.866Z,4.00
2022-11-21T06:51:17.112Z,4.00
2022-11-21T06:53:44.274Z,4.00
2022-11-21T06:56:11.414Z,4.00
2022-11-21T06:58:38.537Z,4.00
2022-11-21T07:01:10.470Z,4.00
2022-11-21T07:03:37.515Z,4.10
2022-11-21T07:06:05.296Z,4.10
2022-11-21T07:08:35.481Z,4.00
2022-11-21T07:13:53.544Z,4.00
2022-11-21T07:16:20.558Z,3.90
2022-11-21T07:18:47.530Z,4.00
2022-11-21T07:21:14.686Z,4.00
2022-11-21T07:23:41.624Z,4.00
2022-11-21T07:26:10.430Z,3.90
2022-11-21T07:28:37.367Z,4.00
2022-11-21T07:31:10.071Z,4.10
2022-11-21T07:33:38.869Z,4.00
2022-11-21T07:36:06.105Z,3.90
2022-11-21T07:38:33.061Z,3.90
2022-11-21T07:41:00.096Z,3.90
2022-11-21T07:43:27.026Z,4.00
2022-11-21T07:45:53.971Z,4.00
2022-11-21T07:48:20.998Z,4.10
2022-11-21T07:50:48.084Z,4.20
2022-11-21T07:53:15.040Z,3.90
2022-11-21T07:55:42.537Z,4.00
2022-11-21T07:58:15.093Z,4.10
2022-11-21T08:00:43.165Z,4.00
2022-11-21T08:03:12.239Z,4.00
2022-11-21T08:05:44.269Z,4.10
2022-11-21T08:08:12.627Z,4.10
2022-11-21T08:10:44.978Z,4.20
2022-11-21T08:13:12.810Z,4.20
2022-11-21T08:15:40.234Z,4.10
2022-11-21T08:18:21.082Z,4.10
2022-11-21T08:20:48.194Z,4.10
2022-11-21T08:23:15.539Z,4.20
2022-11-21T08:25:43.365Z,4.10
2022-11-21T08:28:11.747Z,4.10
2022-11-21T08:30:40.525Z,4.20
2022-11-21T08:33:07.699Z,4.10
2022-11-21T08:35:37.750Z,4.10
2022-11-21T08:38:07.991Z,4.20
2022-11-21T08:40:35.608Z,4.10
2022-11-21T08:43:08.263Z,4.20
2022-11-21T08:45:36.799Z,4.20
2022-11-21T08:48:04.137Z,4.10
2022-11-21T08:50:32.198Z,4.10
2022-11-21T08:53:03.122Z,4.10
2022-11-21T08:55:31.182Z,4.10
2022-11-21T08:57:58.564Z,4.10
2022-11-21T09:00:25.741Z,4.30
2022-11-21T09:02:52.727Z,4.10
2022-11-21T09:05:19.655Z,4.20
2022-11-21T09:07:47.449Z,4.10
2022-11-21T09:10:15.136Z,4.20
2022-11-21T09:12:42.242Z,4.20
2022-11-21T09:15:43.513Z,4.20
2022-11-21T09:18:13.712Z,4.20
2022-11-21T09:20:43.047Z,4.30
2022-11-21T09:23:12.924Z,4.20
2022-11-21T09:25:40.044Z,4.30
2022-11-21T09:28:08.765Z,4.20
2022-11-21T09:30:36.718Z,4.50
2022-11-21T09:33:06.203Z,4.30
2022-11-21T09:35:33.390Z,4.20
2022-11-21T09:38:00.425Z,4.40
2022-11-21T09:40:31.992Z,4.40
2022-11-21T09:43:27.569Z,4.30
2022-11-21T09:46:09.393Z,4.30
2022-11-21T09:48:48.499Z,4.30
2022-11-21T09:51:17.085Z,4.40
2022-11-21T09:53:53.115Z,4.40
2022-11-21T09:56:23.656Z,4.40
2022-11-21T09:59:27.814Z,4.30
2022-11-21T10:01:54.939Z,4.40
2022-11-21T10:04:22.074Z,4.40
2022-11-21T10:07:03.141Z,4.40
2022-11-21T10:09:54.716Z,4.40
2022-11-21T10:12:40.065Z,4.40
2022-11-21T10:15:26.267Z,4.30
2022-11-21T10:18:21.942Z,4.40
2022-11-21T10:21:17.396Z,4.50
2022-11-21T10:24:07.677Z,4.40
2022-11-21T10:26:43.654Z,4.60
2022-11-21T10:29:35.088Z,4.60
2022-11-21T10:32:11.424Z,4.60
2022-11-21T10:34:39.148Z,4.50
2022-11-21T10:37:18.276Z,4.80
2022-11-21T10:39:49.156Z,4.90
2022-11-21T10:42:44.328Z,4.70
2022-11-21T10:45:18.737Z,4.80
2022-11-21T10:47:51.395Z,4.80
2022-11-21T10:50:21.463Z,4.70
2022-11-21T10:53:29.533Z,4.80
2022-11-21T10:56:06.111Z,4.80
2022-11-21T10:58:40.231Z,4.80
2022-11-21T11:01:18.290Z,4.80
2022-11-21T11:04:01.056Z,4.90
2022-11-21T11:06:32.349Z,4.80
2022-11-21T11:08:59.304Z,4.80
2022-11-21T11:11:26.272Z,4.70
2022-11-21T11:13:59.416Z,4.80
2022-11-21T11:16:27.965Z,4.80
2022-11-21T11:19:04.801Z,4.80
2022-11-21T11:21:52.019Z,4.90
2022-11-21T11:24:27.015Z,4.90
2022-11-21T11:27:12.149Z,4.80
2022-11-21T11:29:51.303Z,4.80
2022-11-21T11:32:21.882Z,4.90
2022-11-21T11:35:11.096Z,4.80
2022-11-21T11:37:52.751Z,5.20
2022-11-21T11:40:32.144Z,5.30
2022-11-21T11:43:43.447Z,5.20
2022-11-21T11:46:47.124Z,5.40
2022-11-21T11:49:59.432Z,5.50
2022-11-21T11:52:31.869Z,5.50
2022-11-21T11:55:05.378Z,5.50
2022-11-21T11:57:35.742Z,5.40
2022-11-21T12:00:07.867Z,5.60
2022-11-21T12:02:53.637Z,5.40
2022-11-21T12:05:25.527Z,5.40
2022-11-21T12:08:40.231Z,5.50
2022-11-21T12:11:48.522Z,5.50
2022-11-21T12:14:45.489Z,5.50
2022-11-21T12:17:15.805Z,5.50
2022-11-21T12:19:42.924Z,5.40
2022-11-21T12:22:11.974Z,5.40
2022-11-21T12:24:42.986Z,5.40
2022-11-21T12:27:21.247Z,5.50
2022-11-21T12:29:48.169Z,5.40
2022-11-21T12:32:41.727Z,5.30
2022-11-21T12:35:33.979Z,5.40
2022-11-21T12:38:25.310Z,5.50
2022-11-21T12:41:32.846Z,5.70
2022-11-21T12:44:05.813Z,5.80
2022-11-21T12:46:48.015Z,5.90
2022-11-21T12:49:54.572Z,5.80
2022-11-21T12:52:51.869Z,5.70
2022-11-21T12:55:25.562Z,5.80
2022-11-21T12:58:05.113Z,5.90
2022-11-21T13:00:59.273Z,6.00
2022-11-21T13:03:44.703Z,6.10
2022-11-21T13:06:34.198Z,6.00
2022-11-21T13:09:05.749Z,6.10
2022-11-21T13:12:06.505Z,5.90
2022-11-21T13:14:41.747Z,6.00
2022-11-21T13:17:24.685Z,6.10
2022-11-21T13:20:23.594Z,6.00
2022-11-21T13:22:52.935Z,6.20
2022-11-21T13:25:31.975Z,6.00
2022-11-21T13:28:14.413Z,5.90
2022-11-21T13:30:51.379Z,6.00
2022-11-21T13:33:39.486Z,6.10
2022-11-21T13:36:10.255Z,5.70
2022-11-21T13:38:55.036Z,5.80
2022-11-21T13:41:52.536Z,5.70
2022-11-21T13:44:32.082Z,5.70
2022-11-21T13:47:02.819Z,5.70
2022-11-21T13:49:44.823Z,5.70
2022-11-21T13:52:20.747Z,5.50
2022-11-21T13:55:00.012Z,5.50
2022-11-21T13:57:34.984Z,5.40
2022-11-21T14:00:29.442Z,5.40
2022-11-21T14:03:31.946Z,5.40
2022-11-21T14:06:05.642Z,5.30
2022-11-21T14:08:33.347Z,5.30
2022-11-21T14:11:20.092Z,5.30
2022-11-21T14:13:49.027Z,5.20
2022-11-21T14:16:34.061Z,5.20
2022-11-21T14:19:02.299Z,5.30
2022-11-21T14:21:31.075Z,5.30
2022-11-21T14:24:04.462Z,5.30
2022-11-21T14:26:43.430Z,5.40
2022-11-21T14:29:22.868Z,5.40
2022-11-21T14:31:50.714Z,5.40
2022-11-21T14:34:28.632Z,5.50
2022-11-21T14:36:59.272Z,5.50
2022-11-21T14:39:37.304Z,5.30
2022-11-21T14:42:12.086Z,5.40
2022-11-21T14:44:39.028Z,5.40
2022-11-21T14:47:21.257Z,5.30
2022-11-21T14:49:53.825Z,5.60
2022-11-21T14:52:27.758Z,5.40
2022-11-21T14:57:46.180Z,5.40
2022-11-21T15:00:51.541Z,5.30
2022-11-21T15:03:23.097Z,5.30
2022-11-21T15:06:07.425Z,5.30
2022-11-21T15:11:34.109Z,5.20
2022-11-21T15:14:16.484Z,5.20
2022-11-21T15:16:51.565Z,5.20
2022-11-21T15:19:24.642Z,5.10
2022-11-21T15:21:54.247Z,5.10
2022-11-21T15:24:33.560Z,5.10
2022-11-21T15:27:01.005Z,5.00
2022-11-21T15:29:30.434Z,5.00
2022-11-21T15:32:16.470Z,5.00
2022-11-21T15:34:44.216Z,5.00
2022-11-21T15:37:18.373Z,4.90
2022-11-21T15:39:48.275Z,4.90
2022-11-21T15:42:31.659Z,5.00
2022-11-21T15:45:20.328Z,5.00
2022-11-21T15:47:48.487Z,4.90
2022-11-21T15:50:15.983Z,5.10
2022-11-21T15:52:48.403Z,5.50
2022-11-21T15:55:30.174Z,5.40
2022-11-21T15:57:57.430Z,5.40
2022-11-21T16:00:24.421Z,5.30
2022-11-21T16:02:51.817Z,5.30
2022-11-21T16:05:18.839Z,5.20
2022-11-21T16:07:45.954Z,5.20
2022-11-21T16:10:19.766Z,5.20
2022-11-21T16:12:51.276Z,5.20
2022-11-21T16:15:18.178Z,5.20
2022-11-21T16:17:47.588Z,4.70
2022-11-21T16:20:15.317Z,4.60
2022-11-21T16:22:47.094Z,4.50
2022-11-21T16:25:14.624Z,4.50
2022-11-21T16:27:41.570Z,4.40
2022-11-21T16:30:08.963Z,4.30
2022-11-21T16:32:36.127Z,4.30
2022-11-21T16:35:08.393Z,4.30
2022-11-21T16:37:35.490Z,4.30
2022-11-21T16:40:02.435Z,4.40
2022-11-21T16:42:29.354Z,4.20
2022-11-21T16:44:56.218Z,4.10
2022-11-21T16:47:23.192Z,4.20
2022-11-21T16:49:50.173Z,4.20
2022-11-21T16:52:18.272Z,4.30
2022-11-21T16:54:45.317Z,4.10
2022-11-21T16:57:12.336Z,4.10
2022-11-21T16:59:39.348Z,4.10
2022-11-21T17:02:06.324Z,4.00
2022-11-21T17:04:34.791Z,4.00
2022-11-21T17:07:02.306Z,4.00
2022-11-21T17:09:29.863Z,4.00
2022-11-21T17:11:59.896Z,3.90
2022-11-21T17:14:27.473Z,3.90
2022-11-21T17:16:54.616Z,3.90
2022-11-21T17:19:21.875Z,4.00
2022-11-21T17:21:48.794Z,3.80
2022-11-21T17:24:15.792Z,3.70
2022-11-21T17:26:42.685Z,3.70
2022-11-21T17:29:09.699Z,3.70
2022-11-21T17:31:36.634Z,3.90
2022-11-21T17:34:03.587Z,3.70
2022-11-21T17:36:31.199Z,3.70
2022-11-21T17:38:58.283Z,3.60
2022-11-21T17:41:25.950Z,3.60
2022-11-21T17:43:57.476Z,3.50
2022-11-21T17:46:28.447Z,3.40
2022-11-21T17:48:58.758Z,3.30
2022-11-21T17:51:29.369Z,3.60
2022-11-21T17:53:56.929Z,3.40
2022-11-21T17:56:26.665Z,3.40
2022-11-21T17:58:53.855Z,3.30
2022-11-21T18:01:22.152Z,3.30
2022-11-21T18:03:57.177Z,3.30
2022-11-21T18:06:25.849Z,3.30
2022-11-21T18:08:52.889Z,3.30
2022-11-21T18:11:21.906Z,3.40
2022-11-21T18:13:50.072Z,3.20
2022-11-21T18:16:20.097Z,3.20
2022-11-21T18:18:47.560Z,3.20
2022-11-21T18:21:16.682Z,3.30
2022-11-21T18:23:44.440Z,3.30
2022-11-21T18:26:21.180Z,3.30
2022-11-21T18:29:01.672Z,3.30
2022-11-21T18:31:37.136Z,3.20
2022-11-21T18:34:05.397Z,3.20
2022-11-21T18:36:32.943Z,3.20
2022-11-21T18:39:05.962Z,3.30
2022-11-21T18:41:37.786Z,3.30
2022-11-21T18:44:06.410Z,3.50
2022-11-21T18:46:36.279Z,3.30
2022-11-21T18:49:06.408Z,3.40
2022-11-21T18:51:35.066Z,3.30
2022-11-21T18:54:06.969Z,3.30
2022-11-21T18:56:35.214Z,3.40
2022-11-21T18:59:03.524Z,3.30
2022-11-21T19:01:31.924Z,3.50
2022-11-21T19:03:59.240Z,3.30
2022-11-21T19:06:27.362Z,3.40
2022-11-21T19:08:55.726Z,3.30
2022-11-21T19:11:25.448Z,3.40
2022-11-21T19:13:53.490Z,3.50
2022-11-21T19:16:24.680Z,3.40
2022-11-21T19:21:41.232Z,3.60
2022-11-21T19:24:13.210Z,3.40
2022-11-21T19:26:40.718Z,3.40
2022-11-21T19:29:07.805Z,3.40
2022-11-21T19:31:39.101Z,3.40
2022-11-21T19:34:09.811Z,3.40
2022-11-21T19:36:36.703Z,3.30
2022-11-21T19:39:03.654Z,3.40
2022-11-21T19:41:30.876Z,3.30
2022-11-21T19:44:01.335Z,3.40
2022-11-21T19:46:34.179Z,3.20
2022-11-21T19:49:01.827Z,3.30
2022-11-21T19:51:31.321Z,3.30
2022-11-21T19:53:58.202Z,3.20
2022-11-21T19:56:26.401Z,3.30
2022-11-21T19:58:55.245Z,3.30
2022-11-21T20:01:26.289Z,3.30
2022-11-21T20:03:59.645Z,3.30
2022-11-21T20:06:29.344Z,3.50
2022-11-21T20:09:01.454Z,3.40
2022-11-21T20:11:30.245Z,3.50
2022-11-21T20:13:57.486Z,3.50
2022-11-21T20:16:51.529Z,3.60
2022-11-21T20:19:20.339Z,3.70
2022-11-21T20:21:47.858Z,3.50
2022-11-21T20:24:14.898Z,3.50
2022-11-21T20:26:42.351Z,3.60
2022-11-21T20:29:11.179Z,3.50
2022-11-21T20:31:38.168Z,3.40
2022-11-21T20:34:12.729Z,3.50
2022-11-21T20:36:40.943Z,3.50
2022-11-21T20:39:18.777Z,3.50
2022-11-21T20:41:47.150Z,3.50
2022-11-21T20:45:20.325Z,3.50
2022-11-21T20:47:08.415Z,3.50
2022-11-21T20:49:35.613Z,3.50
2022-11-21T20:53:43.840Z,3.60
2022-11-21T20:54:49.416Z,3.60
2022-11-21T20:57:16.305Z,3.70
2022-11-21T20:59:43.757Z,3.60
2022-11-21T21:02:13.818Z,3.50
2022-11-21T21:04:41.311Z,3.50
2022-11-21T21:07:08.254Z,3.60
2022-11-21T21:09:35.203Z,3.80
2022-11-21T21:12:02.140Z,3.60
2022-11-21T21:14:29.038Z,3.60
2022-11-21T21:16:55.879Z,3.60
2022-11-21T21:19:22.922Z,3.70
2022-11-21T21:21:49.978Z,3.60
2022-11-21T21:24:17.273Z,3.60
2022-11-21T21:26:47.636Z,3.70
2022-11-21T21:29:18.183Z,3.60
2022-11-21T21:31:51.155Z,3.60
2022-11-21T21:34:22.468Z,3.70
2022-11-21T21:36:50.779Z,3.70
2022-11-21T21:39:17.851Z,3.60
2022-11-21T21:41:46.671Z,3.80
2022-11-21T21:44:14.681Z,3.70
2022-11-21T21:46:41.621Z,3.70
2022-11-21T21:49:08.621Z,3.60
2022-11-21T21:51:37.313Z,3.70
2022-11-21T21:54:04.694Z,3.60
2022-11-21T21:56:31.685Z,3.60
2022-11-21T21:58:59.333Z,3.60
2022-11-21T22:01:28.948Z,3.70
2022-11-21T22:04:02.057Z,3.80
2022-11-21T22:06:30.132Z,3.60
2022-11-21T22:08:57.246Z,3.60
2022-11-21T22:11:32.924Z,3.70
2022-11-21T22:14:02.517Z,3.70
2022-11-21T22:16:29.649Z,3.70
2022-11-21T22:18:57.279Z,3.70
2022-11-21T22:21:29.960Z,3.70
2022-11-21T22:26:45.595Z,3.70
2022-11-21T22:29:12.547Z,3.60
2022-11-21T22:31:39.659Z,3.60
2022-11-21T22:34:06.538Z,3.70
2022-11-21T22:36:33.390Z,3.60
2022-11-21T22:39:00.287Z,3.60
2022-11-21T22:41:27.609Z,3.50
2022-11-21T22:43:59.569Z,3.50
2022-11-21T22:46:27.899Z,3.50
2022-11-21T22:48:54.972Z,3.50
2022-11-21T22:51:24.254Z,3.50
2022-11-21T22:53:51.754Z,3.50
2022-11-21T22:56:20.788Z,3.50
2022-11-21T22:58:48.161Z,3.60
2022-11-21T23:01:17.551Z,3.70
2022-11-21T23:03:45.122Z,3.60
2022-11-21T23:06:14.380Z,3.60
2022-11-21T23:08:41.900Z,3.60
2022-11-21T23:11:10.206Z,3.50
2022-11-21T23:13:38.921Z,3.60
2022-11-21T23:16:07.330Z,3.60
2022-11-21T23:18:35.026Z,3.70
2022-11-21T23:21:03.003Z,3.70
2022-11-21T23:23:29.989Z,3.80
2022-11-21T23:25:56.840Z,3.80
2022-11-21T23:28:23.760Z,3.80
2022-11-21T23:30:51.266Z,3.80
2022-11-21T23:33:18.984Z,3.70
2022-11-21T23:35:46.433Z,3.60
2022-11-21T23:38:15.064Z,3.60
2022-11-21T23:40:42.085Z,3.70
2022-11-21T23:43:08.941Z,3.70
2022-11-21T23:45:35.987Z,3.70
2022-11-21T23:48:02.932Z,3.70
2022-11-21T23:50:29.762Z,3.70
2022-11-21T23:52:56.649Z,3.90
2022-11-21T23:55:23.543Z,3.80
2022-11-21T23:57:51.295Z,3.90
